createdAt,value
2022-12-14T00:01:25.937Z,6.68
2022-12-14T00:03:53.560Z,6.47
2022-12-14T00:06:25.569Z,5.80
2022-12-14T00:08:54.310Z,6.13
2022-12-14T00:11:22.589Z,6.90
2022-12-14T00:13:54.308Z,7.75
2022-12-14T00:16:21.830Z,6.50
2022-12-14T00:18:50.372Z,6.68
2022-12-14T00:21:18.162Z,7.25
2022-12-14T00:23:45.885Z,6.35
2022-12-14T00:26:39.807Z,6.40
2022-12-14T00:29:07.023Z,7.18
2022-12-14T00:31:34.647Z,7.00
2022-12-14T00:34:01.952Z,6.68
2022-12-14T00:36:31.636Z,6.20
2022-12-14T00:38:59.194Z,6.63
2022-12-14T00:41:27.008Z,7.45
2022-12-14T00:43:54.443Z,7.05
2022-12-14T00:46:22.155Z,7.45
2022-12-14T00:48:49.611Z,8.30
2022-12-14T00:51:16.858Z,9.10
2022-12-14T00:53:44.469Z,7.30
2022-12-14T00:56:11.673Z,6.88
2022-12-14T00:58:38.965Z,6.97
2022-12-14T01:01:08.151Z,7.85
2022-12-14T01:03:35.897Z,9.15
2022-12-14T01:06:03.276Z,7.45
2022-12-14T01:08:38.520Z,7.75
2022-12-14T01:11:06.781Z,7.38
2022-12-14T01:13:34.091Z,8.23
2022-12-14T01:16:12.131Z,7.07
2022-12-14T01:18:40.704Z,7.13
2022-12-14T01:21:16.160Z,7.82
2022-12-14T01:23:44.180Z,8.30
2022-12-14T01:26:12.862Z,7.60
2022-12-14T01:28:40.422Z,7.13
2022-12-14T01:31:13.553Z,8.15
2022-12-14T01:33:40.861Z,8.55
2022-12-14T01:36:12.347Z,7.32
2022-12-14T01:38:39.764Z,8.52
2022-12-14T01:41:07.045Z,8.75
2022-12-14T01:43:56.815Z,7.38
2022-12-14T01:46:47.640Z,7.78
2022-12-14T01:49:40.489Z,7.97
2022-12-14T01:52:09.002Z,7.70
2022-12-14T01:54:38.750Z,9.25
2022-12-14T01:57:06.960Z,9.00
2022-12-14T01:59:37.191Z,9.50
2022-12-14T02:02:06.091Z,8.75
2022-12-14T02:04:39.222Z,7.00
2022-12-14T02:07:06.444Z,8.05
2022-12-14T02:09:35.671Z,8.52
2022-12-14T02:12:20.723Z,8.88
2022-12-14T02:14:47.953Z,8.07
2022-12-14T02:17:15.196Z,8.82
2022-12-14T02:19:43.775Z,6.90
2022-12-14T02:22:41.974Z,6.72
2022-12-14T02:25:35.119Z,7.15
2022-12-14T02:28:34.684Z,7.60
2022-12-14T02:31:24.242Z,7.63
2022-12-14T02:34:02.995Z,7.43
2022-12-14T02:36:53.439Z,6.60
2022-12-14T02:39:27.698Z,7.07
2022-12-14T02:42:17.705Z,7.72
2022-12-14T02:45:17.418Z,7.30
2022-12-14T02:48:01.879Z,7.35
2022-12-14T02:50:42.117Z,6.15
2022-12-14T02:53:25.835Z,7.40
2022-12-14T02:55:54.101Z,5.57
2022-12-14T02:58:29.390Z,7.32
2022-12-14T03:00:56.803Z,6.75
2022-12-14T03:03:24.412Z,6.65
2022-12-14T03:06:02.938Z,6.18
2022-12-14T03:08:32.149Z,6.28
2022-12-14T03:11:06.282Z,5.90
2022-12-14T03:13:52.299Z,6.22
2022-12-14T03:16:27.254Z,5.88
2022-12-14T03:19:05.711Z,7.75
2022-12-14T03:21:35.249Z,6.68
2022-12-14T03:24:07.758Z,5.90
2022-12-14T03:26:47.249Z,7.05
2022-12-14T03:29:21.799Z,7.25
2022-12-14T03:31:55.109Z,6.60
2022-12-14T03:34:25.480Z,5.68
2022-12-14T03:36:55.677Z,6.10
2022-12-14T03:39:32.106Z,7.25
2022-12-14T03:42:02.235Z,5.75
2022-12-14T03:44:55.973Z,5.88
2022-12-14T03:47:41.877Z,6.07
2022-12-14T03:50:17.754Z,6.05
2022-12-14T03:52:49.806Z,5.82
2022-12-14T03:55:23.096Z,4.85
2022-12-14T03:57:59.703Z,6.20
2022-12-14T04:00:26.997Z,5.00
2022-12-14T04:03:20.267Z,5.30
2022-12-14T04:05:51.855Z,5.35
2022-12-14T04:08:43.685Z,5.28
2022-12-14T04:11:30.640Z,4.35
2022-12-14T04:14:29.975Z,5.45
2022-12-14T04:17:15.962Z,5.57
2022-12-14T04:19:49.656Z,5.13
2022-12-14T04:22:22.989Z,5.65
2022-12-14T04:25:16.341Z,5.97
2022-12-14T04:27:57.253Z,5.15
2022-12-14T04:30:24.466Z,4.85
2022-12-14T04:32:57.026Z,4.63
2022-12-14T04:35:30.959Z,5.45
2022-12-14T04:38:13.719Z,3.97
2022-12-14T04:41:00.929Z,4.95
2022-12-14T04:43:29.701Z,5.85
2022-12-14T04:46:09.808Z,5.30
2022-12-14T04:49:16.461Z,5.05
2022-12-14T04:52:03.443Z,5.45
2022-12-14T04:55:22.639Z,5.38
2022-12-14T04:57:53.516Z,5.80
2022-12-14T05:00:20.831Z,5.95
2022-12-14T05:02:52.383Z,5.68
2022-12-14T05:05:23.993Z,5.82
2022-12-14T05:07:54.163Z,5.57
2022-12-14T05:10:36.580Z,6.40
2022-12-14T05:13:37.096Z,6.22
2022-12-14T05:16:04.634Z,5.55
2022-12-14T05:18:34.701Z,5.53
2022-12-14T05:21:01.911Z,6.63
2022-12-14T05:23:30.071Z,7.82
2022-12-14T05:25:57.542Z,6.25
2022-12-14T05:28:24.790Z,6.25
2022-12-14T05:30:52.072Z,5.30
2022-12-14T05:33:20.655Z,6.68
2022-12-14T05:35:48.017Z,5.38
2022-12-14T05:38:15.334Z,5.07
2022-12-14T05:40:42.575Z,5.90
2022-12-14T05:43:12.196Z,5.72
2022-12-14T05:45:39.827Z,5.22
2022-12-14T05:48:07.117Z,5.95
2022-12-14T05:50:34.876Z,4.40
2022-12-14T05:53:02.155Z,4.18
2022-12-14T05:55:31.186Z,5.32
2022-12-14T05:57:58.393Z,4.30
2022-12-14T06:00:25.684Z,5.47
2022-12-14T06:02:55.481Z,4.90
2022-12-14T06:05:22.787Z,4.82
2022-12-14T06:07:50.052Z,4.47
2022-12-14T06:10:17.486Z,4.63
2022-12-14T06:12:44.767Z,5.18
2022-12-14T06:15:14.058Z,4.80
2022-12-14T06:17:45.108Z,4.22
2022-12-14T06:20:12.930Z,4.70
2022-12-14T06:22:47.204Z,5.07
2022-12-14T06:25:15.147Z,5.13
2022-12-14T06:27:42.502Z,4.65
2022-12-14T06:30:10.455Z,4.47
2022-12-14T06:32:38.386Z,4.05
2022-12-14T06:35:06.193Z,4.60
2022-12-14T06:37:34.134Z,4.80
2022-12-14T06:40:01.325Z,4.60
2022-12-14T06:42:28.533Z,5.32
2022-12-14T06:44:55.881Z,5.47
2022-12-14T06:47:23.231Z,4.88
2022-12-14T06:49:50.442Z,3.97
2022-12-14T06:52:21.957Z,4.88
2022-12-14T06:54:52.329Z,4.88
2022-12-14T06:57:20.230Z,4.65
2022-12-14T06:59:47.687Z,4.63
2022-12-14T07:02:15.266Z,5.68
2022-12-14T07:04:42.863Z,5.90
2022-12-14T07:07:10.640Z,6.05
2022-12-14T07:09:38.556Z,5.95
2022-12-14T07:12:06.007Z,6.20
2022-12-14T07:14:33.446Z,6.72
2022-12-14T07:17:00.746Z,7.30
2022-12-14T07:19:28.005Z,5.63
2022-12-14T07:21:55.433Z,7.28
2022-12-14T07:24:22.656Z,5.55
2022-12-14T07:26:50.084Z,5.25
2022-12-14T07:29:19.485Z,5.63
2022-12-14T07:31:49.190Z,4.85
2022-12-14T07:34:17.081Z,5.27
2022-12-14T07:36:44.304Z,5.32
2022-12-14T07:39:15.436Z,4.95
2022-12-14T07:41:43.039Z,5.93
2022-12-14T07:44:10.353Z,5.50
2022-12-14T07:46:37.755Z,5.43
2022-12-14T07:49:05.332Z,5.47
2022-12-14T07:51:36.297Z,6.05
2022-12-14T07:54:05.309Z,6.15
2022-12-14T07:56:34.980Z,4.72
2022-12-14T07:59:03.589Z,6.25
2022-12-14T08:01:32.763Z,5.22
2022-12-14T08:04:03.588Z,5.43
2022-12-14T08:06:31.066Z,5.68
2022-12-14T08:08:58.492Z,5.55
2022-12-14T08:11:25.765Z,5.97
2022-12-14T08:14:00.849Z,5.00
2022-12-14T08:16:28.328Z,5.10
2022-12-14T08:18:56.426Z,5.95
2022-12-14T08:21:25.523Z,4.13
2022-12-14T08:23:53.639Z,5.75
2022-12-14T08:26:21.020Z,7.13
2022-12-14T08:28:48.796Z,6.38
2022-12-14T08:31:17.553Z,7.00
2022-12-14T08:33:45.318Z,6.05
2022-12-14T08:36:16.651Z,5.32
2022-12-14T08:38:44.406Z,6.63
2022-12-14T08:41:12.997Z,8.15
2022-12-14T08:43:40.881Z,8.18
2022-12-14T08:46:09.310Z,6.90
2022-12-14T08:48:36.919Z,7.38
2022-12-14T08:51:05.925Z,7.20
2022-12-14T08:53:33.809Z,7.82
2022-12-14T08:56:08.263Z,8.13
2022-12-14T08:58:36.329Z,8.82
2022-12-14T09:01:05.021Z,7.97
2022-12-14T09:03:32.908Z,7.03
2022-12-14T09:06:08.771Z,6.90
2022-12-14T09:08:36.189Z,6.95
2022-12-14T09:11:04.959Z,6.45
2022-12-14T09:13:32.968Z,7.10
2022-12-14T09:16:07.543Z,6.78
2022-12-14T09:18:34.847Z,6.85
2022-12-14T09:21:02.583Z,6.85
2022-12-14T09:23:30.685Z,6.30
2022-12-14T09:26:03.978Z,6.72
2022-12-14T09:28:32.167Z,7.03
2022-12-14T09:31:01.227Z,7.15
2022-12-14T09:33:28.989Z,7.15
2022-12-14T09:36:01.827Z,8.43
2022-12-14T09:38:30.984Z,7.95
2022-12-14T09:40:59.964Z,7.10
2022-12-14T09:43:56.724Z,7.90
2022-12-14T09:46:51.629Z,8.60
2022-12-14T09:49:32.056Z,8.13
2022-12-14T09:52:01.638Z,7.43
2022-12-14T09:54:33.832Z,8.48
2022-12-14T09:57:04.575Z,7.88
2022-12-14T09:59:31.962Z,7.78
2022-12-14T10:02:30.926Z,8.88
2022-12-14T10:05:20.263Z,8.30
2022-12-14T10:08:09.922Z,7.18
2022-12-14T10:11:16.845Z,7.82
2022-12-14T10:14:22.229Z,11.27
2022-12-14T10:17:06.101Z,9.07
2022-12-14T10:19:35.143Z,8.25
2022-12-14T10:22:18.539Z,8.55
2022-12-14T10:24:51.154Z,9.45
2022-12-14T10:27:24.211Z,8.77
2022-12-14T10:30:08.034Z,8.32
2022-12-14T10:32:36.941Z,8.18
2022-12-14T10:35:14.733Z,7.50
2022-12-14T10:37:47.532Z,6.57
2022-12-14T10:40:33.634Z,7.13
2022-12-14T10:43:04.726Z,7.10
2022-12-14T10:45:47.233Z,7.15
2022-12-14T10:48:35.017Z,6.50
2022-12-14T10:51:24.217Z,6.65
2022-12-14T10:54:11.773Z,6.80
2022-12-14T10:56:39.452Z,6.18
2022-12-14T10:59:20.935Z,6.72
2022-12-14T11:01:52.951Z,6.85
2022-12-14T11:04:34.291Z,7.93
2022-12-14T11:07:03.955Z,6.70
2022-12-14T11:09:31.973Z,7.18
2022-12-14T11:12:07.700Z,7.72
2022-12-14T11:14:36.292Z,8.02
2022-12-14T11:17:04.063Z,7.80
2022-12-14T11:19:31.746Z,7.28
2022-12-14T11:22:07.883Z,8.48
2022-12-14T11:24:35.736Z,7.60
2022-12-14T11:27:03.503Z,8.10
2022-12-14T11:29:32.570Z,6.70
2022-12-14T11:32:00.519Z,7.15
2022-12-14T11:34:39.427Z,7.53
2022-12-14T11:37:42.366Z,6.93
2022-12-14T11:40:22.895Z,7.20
2022-12-14T11:42:51.678Z,7.30
2022-12-14T11:45:30.540Z,7.93
2022-12-14T11:48:22.255Z,7.32
2022-12-14T11:50:49.873Z,7.85
2022-12-14T11:53:18.645Z,7.03
2022-12-14T11:55:57.632Z,7.35
2022-12-14T11:58:35.813Z,7.18
2022-12-14T12:01:11.634Z,7.55
2022-12-14T12:03:42.249Z,6.75
2022-12-14T12:06:11.305Z,7.05
2022-12-14T12:08:40.260Z,7.15
2022-12-14T12:11:21.485Z,6.82
2022-12-14T12:13:51.388Z,6.10
2022-12-14T12:16:22.842Z,6.78
2022-12-14T12:19:06.467Z,6.05
2022-12-14T12:21:41.009Z,5.97
2022-12-14T12:24:24.988Z,5.72
2022-12-14T12:26:54.862Z,7.80
2022-12-14T12:29:39.361Z,7.07
2022-12-14T12:32:15.228Z,6.68
2022-12-14T12:34:56.161Z,7.35
2022-12-14T12:37:30.295Z,7.85
2022-12-14T12:40:10.531Z,7.90
2022-12-14T12:43:04.362Z,7.18
2022-12-14T12:45:58.913Z,7.03
2022-12-14T12:48:33.716Z,7.10
2022-12-14T12:51:28.900Z,7.65
2022-12-14T12:53:59.238Z,6.35
2022-12-14T12:56:44.464Z,7.00
2022-12-14T12:59:24.501Z,6.88
2022-12-14T13:01:53.479Z,6.88
2022-12-14T13:04:32.448Z,7.43
2022-12-14T13:07:02.704Z,7.57
2022-12-14T13:09:42.556Z,8.53
2022-12-14T13:12:28.471Z,7.47
2022-12-14T13:14:55.759Z,7.90
2022-12-14T13:17:34.805Z,8.15
2022-12-14T13:20:04.307Z,7.85
2022-12-14T13:22:32.629Z,9.05
2022-12-14T13:25:23.786Z,10.88
2022-12-14T13:28:12.871Z,9.90
2022-12-14T13:30:48.414Z,10.68
2022-12-14T13:33:45.600Z,9.63
2022-12-14T13:36:18.214Z,11.07
2022-12-14T13:39:17.666Z,10.52
2022-12-14T13:42:08.290Z,10.88
2022-12-14T13:44:41.993Z,10.77
2022-12-14T13:47:16.534Z,9.73
2022-12-14T13:50:26.623Z,9.60
2022-12-14T13:52:46.722Z,10.55
2022-12-14T13:55:51.817Z,11.98
2022-12-14T13:58:18.968Z,9.02
2022-12-14T14:00:46.713Z,9.13
2022-12-14T14:03:37.562Z,9.68
2022-12-14T14:06:26.427Z,9.73
2022-12-14T14:08:53.792Z,11.57
2022-12-14T14:11:39.742Z,9.90
2022-12-14T14:14:20.695Z,8.70
2022-12-14T14:16:51.299Z,8.98
2022-12-14T14:19:23.596Z,8.65
2022-12-14T14:22:22.270Z,8.27
2022-12-14T14:24:57.627Z,8.93
2022-12-14T14:27:42.034Z,9.18
2022-12-14T14:30:42.299Z,9.15
2022-12-14T14:33:46.649Z,7.72
2022-12-14T14:36:37.134Z,7.55
2022-12-14T14:39:24.488Z,7.35
2022-12-14T14:41:53.579Z,7.43
2022-12-14T14:44:40.646Z,7.75
2022-12-14T14:47:27.636Z,8.38
2022-12-14T14:50:02.540Z,8.32
2022-12-14T14:52:39.385Z,7.70
2022-12-14T14:58:30.341Z,8.60
2022-12-14T15:01:24.801Z,8.05
2022-12-14T15:03:58.229Z,7.72
2022-12-14T15:06:28.537Z,9.05
2022-12-14T15:09:06.456Z,9.13
2022-12-14T15:11:54.048Z,8.45
2022-12-14T15:14:35.557Z,7.00
2022-12-14T15:17:19.522Z,10.75
2022-12-14T15:19:53.317Z,7.60
2022-12-14T15:22:46.759Z,8.32
2022-12-14T15:25:18.855Z,8.23
2022-12-14T15:27:46.069Z,8.50
2022-12-14T15:30:13.209Z,7.97
2022-12-14T15:32:47.257Z,7.45
2022-12-14T15:35:17.179Z,8.32
2022-12-14T15:37:58.067Z,11.38
2022-12-14T15:40:28.300Z,11.50
2022-12-14T15:42:57.441Z,11.40
2022-12-14T15:45:29.438Z,7.93
2022-12-14T15:47:56.772Z,9.05
2022-12-14T15:50:32.213Z,9.73
2022-12-14T15:53:06.848Z,6.88
2022-12-14T15:55:39.183Z,8.15
2022-12-14T15:58:28.159Z,7.65
2022-12-14T16:00:56.636Z,7.95
2022-12-14T16:06:10.030Z,8.52
2022-12-14T16:08:37.319Z,7.47
2022-12-14T16:11:14.257Z,8.57
2022-12-14T16:13:42.081Z,8.45
2022-12-14T16:16:11.099Z,8.95
2022-12-14T16:18:50.706Z,9.60
2022-12-14T16:21:32.303Z,6.97
2022-12-14T16:24:00.085Z,7.40
2022-12-14T16:26:38.589Z,7.53
2022-12-14T16:29:28.848Z,7.38
2022-12-14T16:32:06.995Z,6.73
2022-12-14T16:34:34.412Z,7.45
2022-12-14T16:39:52.119Z,6.88
2022-12-14T16:42:23.730Z,5.15
2022-12-14T16:44:53.922Z,5.85
2022-12-14T16:47:21.086Z,6.43
2022-12-14T16:49:48.298Z,5.95
2022-12-14T16:52:17.310Z,7.07
2022-12-14T16:54:44.893Z,6.13
2022-12-14T16:57:20.715Z,6.07
2022-12-14T16:59:55.925Z,5.28
2022-12-14T17:02:47.182Z,5.03
2022-12-14T17:07:42.522Z,5.25
2022-12-14T17:10:20.433Z,5.10
2022-12-14T17:12:49.213Z,5.40
2022-12-14T17:15:17.529Z,5.18
2022-12-14T17:17:45.511Z,4.47
2022-12-14T17:20:41.843Z,4.97
2022-12-14T17:23:09.955Z,5.13
2022-12-14T17:25:37.309Z,6.03
2022-12-14T17:28:21.143Z,5.60
2022-12-14T17:30:49.709Z,6.18
2022-12-14T17:33:17.002Z,5.85
2022-12-14T17:35:44.275Z,6.75
2022-12-14T17:38:14.588Z,7.55
2022-12-14T17:40:41.985Z,6.87
2022-12-14T17:43:11.865Z,6.07
2022-12-14T17:45:39.247Z,5.80
2022-12-14T17:48:06.636Z,7.72
2022-12-14T17:50:35.050Z,6.07
2022-12-14T17:53:02.387Z,6.65
2022-12-14T17:55:29.728Z,5.45
2022-12-14T17:57:57.939Z,6.40
2022-12-14T18:00:46.502Z,6.50
2022-12-14T18:03:14.340Z,6.13
2022-12-14T18:05:48.036Z,6.25
2022-12-14T18:08:25.022Z,6.80
2022-12-14T18:11:00.937Z,7.60
2022-12-14T18:13:31.749Z,6.78
2022-12-14T18:16:00.628Z,6.13
2022-12-14T18:18:29.658Z,6.05
2022-12-14T18:21:01.844Z,7.78
2022-12-14T18:23:30.225Z,8.32
2022-12-14T18:25:59.072Z,7.63
2022-12-14T18:28:26.654Z,6.25
2022-12-14T18:30:55.702Z,6.93
2022-12-14T18:33:24.514Z,5.30
2022-12-14T18:35:52.319Z,5.50
2022-12-14T18:38:20.229Z,5.72
2022-12-14T18:40:49.940Z,5.28
2022-12-14T18:43:23.546Z,4.28
2022-12-14T18:45:53.331Z,5.15
2022-12-14T18:48:21.686Z,5.47
2022-12-14T18:50:49.738Z,5.85
2022-12-14T18:53:18.298Z,5.78
2022-12-14T18:55:45.840Z,5.90
2022-12-14T18:58:18.505Z,5.28
2022-12-14T19:00:46.115Z,5.63
2022-12-14T19:03:15.284Z,5.05
2022-12-14T19:05:43.656Z,5.53
2022-12-14T19:08:11.181Z,4.97
2022-12-14T19:10:42.745Z,5.68
2022-12-14T19:13:25.525Z,6.30
2022-12-14T19:15:54.275Z,6.72
2022-12-14T19:18:21.693Z,8.18
2022-12-14T19:20:49.585Z,8.07
2022-12-14T19:23:17.863Z,8.82
2022-12-14T19:25:45.526Z,7.88
2022-12-14T19:28:33.146Z,8.55
2022-12-14T19:31:01.319Z,8.65
2022-12-14T19:33:29.237Z,10.70
2022-12-14T19:35:56.825Z,11.82
2022-12-14T19:38:24.343Z,10.05
2022-12-14T19:40:59.774Z,6.57
2022-12-14T19:43:28.139Z,6.72
2022-12-14T19:45:55.872Z,5.10
2022-12-14T19:48:23.210Z,6.15
2022-12-14T19:50:50.608Z,5.50
2022-12-14T19:53:23.240Z,6.43
2022-12-14T19:55:56.020Z,6.38
2022-12-14T19:58:25.264Z,6.10
2022-12-14T20:00:52.920Z,6.28
2022-12-14T20:03:20.981Z,6.20
2022-12-14T20:05:58.686Z,6.55
2022-12-14T20:08:29.461Z,6.90
2022-12-14T20:10:56.963Z,6.55
2022-12-14T20:13:25.769Z,5.70
2022-12-14T20:16:00.154Z,5.78
2022-12-14T20:18:28.069Z,6.85
2022-12-14T20:21:06.231Z,5.20
2022-12-14T20:23:35.306Z,6.38
2022-12-14T20:26:03.558Z,7.55
2022-12-14T20:28:31.105Z,7.07
2022-12-14T20:30:58.465Z,7.80
2022-12-14T20:33:30.219Z,6.22
2022-12-14T20:35:58.398Z,8.20
2022-12-14T20:38:26.111Z,7.28
2022-12-14T20:40:53.663Z,7.18
2022-12-14T20:43:20.906Z,8.68
2022-12-14T20:45:48.455Z,7.15
2022-12-14T20:48:15.807Z,7.78
2022-12-14T20:50:43.386Z,7.43
2022-12-14T20:53:10.646Z,9.60
2022-12-14T20:55:37.970Z,10.60
2022-12-14T20:58:05.415Z,11.18
2022-12-14T21:00:32.690Z,11.00
2022-12-14T21:03:00.236Z,9.60
2022-12-14T21:05:27.684Z,10.57
2022-12-14T21:07:55.619Z,9.88
2022-12-14T21:10:22.953Z,9.57
2022-12-14T21:12:50.243Z,11.10
2022-12-14T21:15:17.641Z,9.55
2022-12-14T21:17:44.958Z,10.20
2022-12-14T21:20:12.464Z,9.93
2022-12-14T21:22:39.979Z,10.45
2022-12-14T21:25:07.886Z,9.95
2022-12-14T21:27:38.347Z,8.23
2022-12-14T21:30:07.514Z,9.00
2022-12-14T21:32:38.411Z,8.63
2022-12-14T21:35:06.138Z,9.30
2022-12-14T21:37:33.357Z,9.10
2022-12-14T21:40:03.325Z,9.20
2022-12-14T21:42:31.421Z,8.85
2022-12-14T21:44:58.752Z,8.05
2022-12-14T21:47:27.465Z,9.38
2022-12-14T21:49:54.946Z,9.60
2022-12-14T21:52:26.465Z,12.25
2022-12-14T21:54:53.753Z,12.57
2022-12-14T21:57:41.468Z,11.52
2022-12-14T22:00:09.662Z,11.57
2022-12-14T22:02:36.995Z,11.80
2022-12-14T22:05:04.656Z,11.60
2022-12-14T22:07:32.794Z,10.98
2022-12-14T22:10:00.124Z,12.32
2022-12-14T22:12:27.361Z,11.82
2022-12-14T22:14:54.638Z,11.13
2022-12-14T22:17:21.925Z,12.75
2022-12-14T22:20:07.892Z,13.43
2022-12-14T22:22:35.181Z,12.45
2022-12-14T22:25:02.461Z,12.00
2022-12-14T22:27:29.939Z,11.25
2022-12-14T22:29:57.162Z,11.25
2022-12-14T22:32:24.659Z,9.90
2022-12-14T22:34:51.911Z,10.95
2022-12-14T22:37:19.187Z,10.60
2022-12-14T22:39:48.185Z,9.95
2022-12-14T22:42:16.308Z,9.38
2022-12-14T22:44:43.990Z,8.35
2022-12-14T22:47:11.242Z,8.75
2022-12-14T22:49:38.470Z,8.48
2022-12-14T22:52:05.913Z,9.50
2022-12-14T22:54:33.475Z,9.15
2022-12-14T22:57:06.968Z,10.07
2022-12-14T22:59:37.236Z,11.50
2022-12-14T23:02:04.963Z,10.45
2022-12-14T23:04:33.395Z,12.30
2022-12-14T23:07:01.273Z,13.95
2022-12-14T23:09:48.059Z,12.10
2022-12-14T23:12:34.360Z,11.20
2022-12-14T23:15:20.243Z,10.13
2022-12-14T23:18:06.457Z,9.55
2022-12-14T23:20:52.299Z,8.65
2022-12-14T23:23:38.091Z,7.97
2022-12-14T23:26:23.983Z,6.05
2022-12-14T23:29:10.056Z,6.85
2022-12-14T23:31:55.822Z,5.55
2022-12-14T23:34:41.538Z,6.43
2022-12-14T23:37:27.316Z,5.32
2022-12-14T23:40:13.215Z,5.88
2022-12-14T23:42:59.091Z,5.65
2022-12-14T23:45:45.016Z,5.13
2022-12-14T23:48:30.884Z,5.25
2022-12-14T23:51:19.029Z,6.80
2022-12-14T23:54:05.111Z,4.95
2022-12-14T23:56:52.383Z,4.32
2022-12-14T23:59:38.333Z,5.30
